createdAt,value
2019-03-28T00:01:21.862Z,102850.96
2019-03-28T00:03:52.608Z,102856.66
2019-03-28T00:06:23.544Z,102848.19
2019-03-28T00:08:54.271Z,102848.61
2019-03-28T00:11:25.057Z,102844.34
2019-03-28T00:13:55.752Z,102843.02
2019-03-28T00:16:29.103Z,102840.48
2019-03-28T00:18:59.845Z,102838.30
2019-03-28T00:21:30.535Z,102839.16
2019-03-28T00:24:17.982Z,102844.45
2019-03-28T00:26:50.392Z,102843.08
2019-03-28T00:29:21.061Z,102832.98
2019-03-28T00:31:51.830Z,102837.06
2019-03-28T00:34:31.394Z,102837.78
2019-03-28T00:37:08.975Z,102830.19
2019-03-28T00:39:49.303Z,102827.07
2019-03-28T00:42:21.054Z,102827.17
2019-03-28T00:45:03.156Z,102823.50
2019-03-28T00:47:38.657Z,102826.22
2019-03-28T00:50:15.723Z,102820.07
2019-03-28T00:53:10.305Z,102826.55
2019-03-28T00:55:49.637Z,102827.49
2019-03-28T00:58:23.487Z,102823.86
2019-03-28T01:00:54.435Z,102831.70
2019-03-28T01:03:25.280Z,102827.63
2019-03-28T01:05:55.972Z,102826.74
2019-03-28T01:08:26.835Z,102826.45
2019-03-28T01:10:58.656Z,102826.81
2019-03-28T01:13:29.375Z,102823.81
2019-03-28T01:16:00.139Z,102835.84
2019-03-28T01:18:30.891Z,102831.33
2019-03-28T01:21:01.604Z,102831.88
2019-03-28T01:23:32.300Z,102831.75
2019-03-28T01:26:03.058Z,102836.23
2019-03-28T01:28:35.011Z,102833.17
2019-03-28T01:31:05.710Z,102828.30
2019-03-28T01:33:36.494Z,102836.13
2019-03-28T01:36:07.195Z,102841.78
2019-03-28T01:38:37.903Z,102840.25
2019-03-28T01:41:08.668Z,102831.92
2019-03-28T01:43:40.452Z,102841.17
2019-03-28T01:46:11.247Z,102838.38
2019-03-28T01:48:41.947Z,102835.81
2019-03-28T01:51:12.689Z,102837.98
2019-03-28T01:53:43.494Z,102840.52
2019-03-28T01:56:14.221Z,102843.72
2019-03-28T01:58:44.911Z,102841.09
2019-03-28T02:01:15.625Z,102838.34
2019-03-28T02:03:46.459Z,102840.91
2019-03-28T02:06:18.071Z,102841.84
2019-03-28T02:08:50.001Z,102848.34
2019-03-28T02:11:21.725Z,102837.66
2019-03-28T02:13:52.561Z,102836.33
2019-03-28T02:16:23.299Z,102843.87
2019-03-28T02:18:54.190Z,102849.73
2019-03-28T02:21:24.919Z,102844.84
2019-03-28T02:23:55.661Z,102838.78
2019-03-28T02:26:26.491Z,102849.36
2019-03-28T02:28:57.274Z,102851.05
2019-03-28T02:31:28.079Z,102844.73
2019-03-28T02:33:58.928Z,102848.12
2019-03-28T02:36:29.736Z,102852.52
2019-03-28T02:39:00.507Z,102856.09
2019-03-28T02:41:32.940Z,102859.54
2019-03-28T02:44:03.668Z,102858.22
2019-03-28T02:46:34.818Z,102856.55
2019-03-28T02:49:05.529Z,102856.05
2019-03-28T02:51:36.299Z,102860.97
2019-03-28T02:54:07.182Z,102866.20
2019-03-28T02:56:37.948Z,102865.73
2019-03-28T02:59:08.780Z,102860.06
2019-03-28T03:01:40.815Z,102863.56
2019-03-28T03:04:11.730Z,102864.41
2019-03-28T03:06:42.549Z,102862.98
2019-03-28T03:09:13.321Z,102862.45
2019-03-28T03:11:44.087Z,102859.34
2019-03-28T03:14:15.803Z,102861.66
2019-03-28T03:16:46.522Z,102862.45
2019-03-28T03:19:17.479Z,102864.09
2019-03-28T03:21:48.555Z,102865.30
2019-03-28T03:24:19.339Z,102870.20
2019-03-28T03:26:50.099Z,102868.44
2019-03-28T03:29:20.824Z,102867.58
2019-03-28T03:31:53.558Z,102864.41
2019-03-28T03:34:23.960Z,102868.47
2019-03-28T03:36:54.765Z,102869.38
2019-03-28T03:39:25.636Z,102872.96
2019-03-28T03:41:56.469Z,102870.84
2019-03-28T03:44:27.333Z,102862.92
2019-03-28T03:46:58.143Z,102866.00
2019-03-28T03:49:30.762Z,102870.32
2019-03-28T03:52:01.766Z,102863.24
2019-03-28T03:54:32.692Z,102865.47
2019-03-28T03:57:03.474Z,102869.84
2019-03-28T03:59:34.313Z,102873.31
2019-03-28T04:02:05.108Z,102872.05
2019-03-28T04:04:35.869Z,102874.98
2019-03-28T04:07:06.600Z,102875.92
2019-03-28T04:09:38.374Z,102870.44
2019-03-28T04:12:09.048Z,102880.95
2019-03-28T04:14:41.400Z,102877.05
2019-03-28T04:17:12.129Z,102885.41
2019-03-28T04:19:42.980Z,102881.39
2019-03-28T04:22:13.705Z,102881.77
2019-03-28T04:24:44.458Z,102880.80
2019-03-28T04:27:15.204Z,102880.80
2019-03-28T04:29:48.211Z,102886.23
2019-03-28T04:32:25.373Z,102892.31
2019-03-28T04:34:57.157Z,102897.59
2019-03-28T04:37:27.891Z,102893.92
2019-03-28T04:39:58.601Z,102894.89
2019-03-28T04:42:29.358Z,102900.23
2019-03-28T04:45:00.270Z,102915.53
2019-03-28T04:47:31.233Z,102903.27
2019-03-28T04:50:08.185Z,102909.48
2019-03-28T04:52:39.217Z,102902.91
2019-03-28T04:55:10.048Z,102903.41
2019-03-28T04:57:41.290Z,102902.88
2019-03-28T05:00:14.511Z,102904.05
2019-03-28T05:02:48.329Z,102912.23
2019-03-28T05:05:19.053Z,102909.84
2019-03-28T05:07:49.797Z,102924.13
2019-03-28T05:10:21.993Z,102920.69
2019-03-28T05:12:56.396Z,102921.32
2019-03-28T05:15:27.179Z,102920.22
2019-03-28T05:18:01.084Z,102920.38
2019-03-28T05:20:34.047Z,102918.52
2019-03-28T05:23:08.461Z,102928.24
2019-03-28T05:25:39.195Z,102925.19
2019-03-28T05:28:12.227Z,102927.39
2019-03-28T05:30:45.231Z,102929.09
2019-03-28T05:33:18.008Z,102926.22
2019-03-28T05:35:50.445Z,102931.10
2019-03-28T05:38:21.284Z,102933.65
2019-03-28T05:40:52.073Z,102940.80
2019-03-28T05:43:22.786Z,102941.20
2019-03-28T05:45:53.542Z,102946.23
2019-03-28T05:48:26.243Z,102950.79
2019-03-28T05:50:59.183Z,102944.21
2019-03-28T05:53:29.965Z,102953.38
2019-03-28T05:56:01.715Z,102952.59
2019-03-28T05:58:32.492Z,102950.62
2019-03-28T06:01:03.318Z,102952.59
2019-03-28T06:03:34.167Z,102960.38
2019-03-28T06:06:05.775Z,102962.33
2019-03-28T06:08:37.743Z,102954.48
2019-03-28T06:11:08.480Z,102951.59
2019-03-28T06:13:39.384Z,102954.53
2019-03-28T06:16:10.134Z,102960.62
2019-03-28T06:18:40.930Z,102964.41
2019-03-28T06:21:11.694Z,102965.43
2019-03-28T06:23:42.511Z,102968.00
2019-03-28T06:26:13.306Z,102961.59
2019-03-28T06:28:44.105Z,102956.56
2019-03-28T06:31:14.823Z,102954.91
2019-03-28T06:33:45.689Z,102953.86
2019-03-28T06:36:16.433Z,102955.86
2019-03-28T06:38:47.159Z,102944.42
2019-03-28T06:41:17.910Z,102947.20
2019-03-28T06:43:49.735Z,102942.97
2019-03-28T06:46:20.459Z,102945.24
2019-03-28T06:48:51.287Z,102939.59
2019-03-28T06:51:22.106Z,102934.14
2019-03-28T06:53:52.865Z,102942.20
2019-03-28T06:56:25.448Z,102941.49
2019-03-28T06:58:56.169Z,102943.75
2019-03-28T07:01:26.924Z,102943.06
2019-03-28T07:03:57.683Z,102952.92
2019-03-28T07:06:28.413Z,102951.25
2019-03-28T07:08:59.198Z,102954.08
2019-03-28T07:11:30.014Z,102947.16
2019-03-28T07:14:00.787Z,102949.82
2019-03-28T07:16:31.552Z,102955.09
2019-03-28T07:19:02.320Z,102951.96
2019-03-28T07:21:33.049Z,102954.66
2019-03-28T07:24:04.259Z,102951.52
2019-03-28T07:26:34.967Z,102965.91
2019-03-28T07:29:05.762Z,102969.23
2019-03-28T07:31:36.520Z,102972.97
2019-03-28T07:34:10.124Z,102973.20
2019-03-28T07:36:40.905Z,102979.12
2019-03-28T07:39:11.656Z,102983.04
2019-03-28T07:41:42.451Z,102983.56
2019-03-28T07:44:13.193Z,102982.42
2019-03-28T07:46:44.059Z,102979.17
2019-03-28T07:49:14.857Z,102982.20
2019-03-28T07:51:45.581Z,102989.13
2019-03-28T07:54:16.466Z,102985.06
2019-03-28T07:56:47.240Z,102989.63
2019-03-28T07:59:18.273Z,102992.33
2019-03-28T08:01:49.054Z,102994.53
2019-03-28T08:04:21.084Z,102991.97
2019-03-28T08:06:51.939Z,102990.62
2019-03-28T08:09:35.739Z,102985.42
2019-03-28T08:11:55.157Z,102988.67
2019-03-28T08:14:25.883Z,102989.79
2019-03-28T08:16:56.648Z,102991.44
2019-03-28T08:19:27.332Z,102994.68
2019-03-28T08:21:58.151Z,102973.98
2019-03-28T08:24:28.865Z,102978.52
2019-03-28T08:26:59.602Z,102977.59
2019-03-28T08:29:30.466Z,102970.56
2019-03-28T08:32:01.715Z,102965.95
2019-03-28T08:34:32.476Z,102974.34
2019-03-28T08:37:03.687Z,102965.80
2019-03-28T08:39:34.652Z,102973.70
2019-03-28T08:42:05.454Z,102975.11
2019-03-28T08:44:36.242Z,102973.70
2019-03-28T08:47:07.135Z,102980.06
2019-03-28T08:49:38.202Z,102985.58
2019-03-28T08:52:11.616Z,102987.34
2019-03-28T08:54:41.874Z,102994.11
2019-03-28T08:57:13.752Z,103000.28
2019-03-28T08:59:44.808Z,102994.38
2019-03-28T09:02:15.572Z,103001.44
2019-03-28T09:04:47.328Z,102991.89
2019-03-28T09:07:18.128Z,102993.66
2019-03-28T09:09:49.108Z,102994.78
2019-03-28T09:12:19.897Z,102998.11
2019-03-28T09:14:50.671Z,102999.13
2019-03-28T09:17:23.849Z,103008.02
2019-03-28T09:19:53.836Z,103000.73
2019-03-28T09:22:25.877Z,103005.87
2019-03-28T09:24:57.922Z,103004.56
2019-03-28T09:27:28.708Z,102999.87
2019-03-28T09:29:59.537Z,103004.28
2019-03-28T09:32:30.637Z,103002.87
2019-03-28T09:35:01.429Z,103006.54
2019-03-28T09:37:32.169Z,102999.86
2019-03-28T09:40:02.935Z,102998.39
2019-03-28T09:42:33.705Z,103004.27
2019-03-28T09:45:04.947Z,102999.24
2019-03-28T09:47:35.781Z,102989.92
2019-03-28T09:50:07.080Z,102993.53
2019-03-28T09:52:37.808Z,102983.12
2019-03-28T09:55:08.566Z,102991.41
2019-03-28T09:57:39.307Z,102992.98
2019-03-28T10:00:11.480Z,102989.22
2019-03-28T10:02:44.086Z,102989.27
2019-03-28T10:05:15.819Z,102989.73
2019-03-28T10:07:46.605Z,102987.27
2019-03-28T10:10:17.346Z,102986.80
2019-03-28T10:12:48.139Z,102981.75
2019-03-28T10:15:18.966Z,102981.27
2019-03-28T10:17:49.749Z,102982.62
2019-03-28T10:20:20.433Z,102976.42
2019-03-28T10:22:51.238Z,102979.06
2019-03-28T10:25:21.989Z,102957.83
2019-03-28T10:27:52.733Z,102961.94
2019-03-28T10:30:45.784Z,102967.45
2019-03-28T10:33:16.492Z,102955.16
2019-03-28T10:35:47.237Z,102966.38
2019-03-28T10:38:17.951Z,102964.73
2019-03-28T10:40:48.699Z,102971.01
2019-03-28T10:43:19.454Z,102973.56
2019-03-28T10:45:50.199Z,102971.72
2019-03-28T10:48:23.444Z,102967.31
2019-03-28T10:50:53.394Z,102976.17
2019-03-28T10:53:24.132Z,102976.96
2019-03-28T10:55:54.997Z,102984.88
2019-03-28T10:58:25.747Z,102981.37
2019-03-28T11:00:56.723Z,102984.91
2019-03-28T11:03:27.475Z,102984.16
2019-03-28T11:05:58.231Z,102978.89
2019-03-28T11:08:29.045Z,102991.37
2019-03-28T11:10:59.941Z,102984.14
2019-03-28T11:13:30.779Z,102985.48
2019-03-28T11:16:01.668Z,102983.63
2019-03-28T11:18:32.576Z,102995.13
2019-03-28T11:21:03.338Z,102987.23
2019-03-28T11:23:34.299Z,102983.80
2019-03-28T11:26:05.441Z,102990.03
2019-03-28T11:28:36.197Z,102992.28
2019-03-28T11:31:07.959Z,102986.83
2019-03-28T11:33:38.945Z,102996.08
2019-03-28T11:36:09.639Z,102993.41
2019-03-28T11:38:40.433Z,102999.20
2019-03-28T11:41:11.169Z,102995.53
2019-03-28T11:43:42.081Z,103000.45
2019-03-28T11:46:13.725Z,103000.52
2019-03-28T11:48:44.542Z,102996.59
2019-03-28T11:51:15.335Z,102998.84
2019-03-28T11:53:46.240Z,102997.06
2019-03-28T11:56:17.043Z,102993.11
2019-03-28T11:58:47.840Z,102990.08
2019-03-28T12:01:18.566Z,102995.89
2019-03-28T12:03:49.335Z,103001.11
2019-03-28T12:06:20.059Z,102993.02
2019-03-28T12:08:50.785Z,102991.63
2019-03-28T12:11:21.446Z,102986.36
2019-03-28T12:13:52.185Z,102986.82
2019-03-28T12:16:22.936Z,102992.61
2019-03-28T12:18:53.728Z,102993.57
2019-03-28T12:21:26.836Z,102990.98
2019-03-28T12:23:57.646Z,102987.45
2019-03-28T12:26:29.596Z,102987.08
2019-03-28T12:29:00.709Z,102989.29
2019-03-28T12:31:33.179Z,102995.07
2019-03-28T12:34:04.066Z,102989.20
2019-03-28T12:36:34.787Z,102986.41
2019-03-28T12:39:07.291Z,102990.80
2019-03-28T12:41:37.980Z,102988.55
2019-03-28T12:44:08.884Z,102990.35
2019-03-28T12:46:39.542Z,102988.61
2019-03-28T12:49:10.475Z,102991.33
2019-03-28T12:51:41.134Z,102989.63
2019-03-28T12:54:11.918Z,102986.20
2019-03-28T12:56:42.643Z,102985.33
2019-03-28T12:59:14.067Z,102986.64
2019-03-28T13:01:45.281Z,102983.97
2019-03-28T13:04:16.116Z,102980.45
2019-03-28T13:06:46.913Z,102976.42
2019-03-28T13:09:17.784Z,102979.11
2019-03-28T13:11:48.562Z,102978.65
2019-03-28T13:14:19.366Z,102979.55
2019-03-28T13:16:51.772Z,102979.09
2019-03-28T13:19:27.447Z,102995.95
2019-03-28T13:21:58.357Z,102996.88
2019-03-28T13:24:29.110Z,102994.19
2019-03-28T13:26:59.840Z,102993.75
2019-03-28T13:29:30.615Z,102990.66
2019-03-28T13:32:01.247Z,102994.66
2019-03-28T13:34:31.981Z,102993.31
2019-03-28T13:37:02.666Z,102992.86
2019-03-28T13:39:33.390Z,102987.11
2019-03-28T13:42:04.057Z,102984.86
2019-03-28T13:44:34.754Z,102987.53
2019-03-28T13:47:05.427Z,102989.30
2019-03-28T13:49:36.156Z,102990.22
2019-03-28T13:52:06.846Z,102985.74
2019-03-28T13:54:37.660Z,102983.96
2019-03-28T13:57:08.361Z,102981.30
2019-03-28T13:59:39.099Z,102980.78
2019-03-28T14:02:09.852Z,102983.34
2019-03-28T14:04:40.624Z,102978.47
2019-03-28T14:07:13.269Z,102974.48
2019-03-28T14:09:44.024Z,102983.74
2019-03-28T14:12:14.805Z,102976.17
2019-03-28T14:14:45.534Z,102965.56
2019-03-28T14:17:16.321Z,102969.61
2019-03-28T14:19:47.031Z,102968.27
2019-03-28T14:22:18.253Z,102967.36
2019-03-28T14:24:49.066Z,102965.16
2019-03-28T14:27:19.799Z,102967.40
2019-03-28T14:29:50.510Z,102962.49
2019-03-28T14:32:21.162Z,102964.23
2019-03-28T14:34:51.865Z,102964.70
2019-03-28T14:37:22.506Z,102961.61
2019-03-28T14:39:53.305Z,102964.73
2019-03-28T14:42:23.990Z,102970.94
2019-03-28T14:44:54.683Z,102969.56
2019-03-28T14:47:25.469Z,102960.70
2019-03-28T14:49:56.483Z,102965.20
2019-03-28T14:52:28.659Z,102961.23
2019-03-28T14:55:01.628Z,102960.33
2019-03-28T14:57:32.995Z,102958.12
2019-03-28T15:00:05.570Z,102960.41
2019-03-28T15:02:36.396Z,102964.86
2019-03-28T15:05:07.379Z,102960.88
2019-03-28T15:07:38.109Z,102966.66
2019-03-28T15:10:09.074Z,102963.53
2019-03-28T15:12:39.745Z,102968.41
2019-03-28T15:15:10.907Z,102966.20
2019-03-28T15:17:44.797Z,102962.66
2019-03-28T15:20:13.950Z,102959.52
2019-03-28T15:22:44.627Z,102959.09
2019-03-28T15:25:15.314Z,102960.86
2019-03-28T15:27:46.048Z,102956.44
2019-03-28T15:30:18.114Z,102957.31
2019-03-28T15:32:48.860Z,102958.19
2019-03-28T15:35:19.501Z,102959.92
2019-03-28T15:37:50.168Z,102958.56
2019-03-28T15:40:21.018Z,102954.12
2019-03-28T15:42:51.874Z,102958.05
2019-03-28T15:45:22.545Z,102955.80
2019-03-28T15:47:53.291Z,102963.32
2019-03-28T15:50:24.474Z,102959.27
2019-03-28T15:52:57.583Z,102967.20
2019-03-28T15:55:30.787Z,102965.41
2019-03-28T15:58:07.256Z,102961.92
2019-03-28T16:00:38.174Z,102965.97
2019-03-28T16:03:08.955Z,102961.53
2019-03-28T16:05:40.598Z,102965.10
2019-03-28T16:08:11.336Z,102961.08
2019-03-28T16:10:44.093Z,102966.44
2019-03-28T16:13:14.770Z,102970.84
2019-03-28T16:15:46.852Z,102972.59
2019-03-28T16:18:21.939Z,102968.59
2019-03-28T16:20:56.703Z,102970.84
2019-03-28T16:23:29.571Z,102964.59
2019-03-28T16:26:02.479Z,102965.48
2019-03-28T16:28:33.240Z,102960.59
2019-03-28T16:31:04.191Z,102966.38
2019-03-28T16:33:37.858Z,102961.48
2019-03-28T16:36:09.228Z,102961.93
2019-03-28T16:38:39.945Z,102966.33
2019-03-28T16:41:10.749Z,102968.08
2019-03-28T16:43:42.147Z,102980.03
2019-03-28T16:46:12.874Z,102977.42
2019-03-28T16:48:43.700Z,102978.23
2019-03-28T16:51:17.388Z,102979.97
2019-03-28T16:53:46.995Z,102981.29
2019-03-28T16:56:19.188Z,102981.73
2019-03-28T16:58:50.209Z,102973.77
2019-03-28T17:01:20.937Z,102980.77
2019-03-28T17:03:52.382Z,102972.44
2019-03-28T17:06:26.330Z,102971.97
2019-03-28T17:09:02.859Z,102968.84
2019-03-28T17:11:34.760Z,102975.89
2019-03-28T17:14:05.784Z,102971.90
2019-03-28T17:16:36.471Z,102974.56
2019-03-28T17:19:07.310Z,102974.55
2019-03-28T17:21:38.004Z,102981.15
2019-03-28T17:24:08.707Z,102982.92
2019-03-28T17:26:39.405Z,102982.92
2019-03-28T17:29:10.256Z,102983.78
2019-03-28T17:31:40.942Z,102985.05
2019-03-28T17:34:13.891Z,102978.39
2019-03-28T17:36:46.381Z,102984.51
2019-03-28T17:39:19.003Z,102978.23
2019-03-28T17:41:49.671Z,102979.94
2019-03-28T17:44:20.497Z,102987.41
2019-03-28T17:46:51.207Z,102985.61
2019-03-28T17:49:22.057Z,102987.78
2019-03-28T17:51:56.965Z,102977.91
2019-03-28T17:54:30.226Z,102981.42
2019-03-28T17:57:02.687Z,102983.20
2019-03-28T17:59:34.450Z,102986.73
2019-03-28T18:02:05.181Z,102982.75
2019-03-28T18:04:47.454Z,102983.67
2019-03-28T18:07:08.421Z,102981.02
2019-03-28T18:09:39.132Z,102982.81
2019-03-28T18:12:09.792Z,102987.64
2019-03-28T18:14:40.523Z,102992.54
2019-03-28T18:17:11.809Z,102982.75
2019-03-28T18:19:42.681Z,102988.51
2019-03-28T18:22:13.470Z,102989.48
2019-03-28T18:24:44.115Z,102977.08
2019-03-28T18:27:15.116Z,102981.18
2019-03-28T18:29:45.919Z,102983.34
2019-03-28T18:32:19.108Z,102986.00
2019-03-28T18:35:04.634Z,102985.61
2019-03-28T18:37:23.347Z,102994.84
2019-03-28T18:39:57.548Z,102991.31
2019-03-28T18:42:28.320Z,102998.39
2019-03-28T18:45:00.573Z,102998.88
2019-03-28T18:47:32.393Z,102997.93
2019-03-28T18:50:03.987Z,102997.48
2019-03-28T18:52:35.049Z,102995.27
2019-03-28T18:55:06.179Z,102997.06
2019-03-28T18:57:39.693Z,102997.48
2019-03-28T19:00:10.892Z,102998.75
2019-03-28T19:02:41.859Z,102995.20
2019-03-28T19:05:19.564Z,103002.80
2019-03-28T19:07:45.035Z,103003.72
2019-03-28T19:10:16.089Z,103003.27
2019-03-28T19:12:48.233Z,103009.05
2019-03-28T19:15:20.648Z,103002.78
2019-03-28T19:17:51.360Z,103000.10
2019-03-28T19:20:23.199Z,103001.35
2019-03-28T19:22:53.930Z,103007.11
2019-03-28T19:25:24.676Z,103008.42
2019-03-28T19:27:55.712Z,103008.35
2019-03-28T19:30:34.280Z,103006.66
2019-03-28T19:33:07.060Z,103005.34
2019-03-28T19:35:39.604Z,103009.32
2019-03-28T19:38:11.976Z,103009.77
2019-03-28T19:40:46.837Z,103017.61
2019-03-28T19:43:20.792Z,103008.16
2019-03-28T19:45:51.606Z,103018.70
2019-03-28T19:48:22.320Z,103020.07
2019-03-28T19:50:53.025Z,103021.35
2019-03-28T19:53:27.012Z,103019.13
2019-03-28T19:55:58.006Z,103014.71
2019-03-28T19:58:35.105Z,103011.19
2019-03-28T20:01:05.698Z,103022.31
2019-03-28T20:03:36.399Z,103017.84
2019-03-28T20:06:21.317Z,103017.83
2019-03-28T20:08:40.822Z,103017.30
2019-03-28T20:11:11.601Z,103019.00
2019-03-28T20:13:42.388Z,103023.86
2019-03-28T20:16:16.398Z,103019.84
2019-03-28T20:18:46.827Z,103019.81
2019-03-28T20:21:17.560Z,103014.05
2019-03-28T20:23:51.078Z,103018.48
2019-03-28T20:26:24.988Z,103015.00
2019-03-28T20:29:05.580Z,103019.01
2019-03-28T20:31:37.494Z,103014.19
2019-03-28T20:34:08.690Z,103014.62
2019-03-28T20:36:44.373Z,103017.64
2019-03-28T20:39:16.907Z,103021.16
2019-03-28T20:41:47.555Z,103021.61
2019-03-28T20:44:20.496Z,103026.48
2019-03-28T20:46:58.667Z,103023.42
2019-03-28T20:49:30.915Z,103026.94
2019-03-28T20:52:01.716Z,103026.90
2019-03-28T20:54:32.428Z,103028.73
2019-03-28T20:57:03.084Z,103029.56
2019-03-28T20:59:36.095Z,103031.30
2019-03-28T21:02:07.982Z,103025.94
2019-03-28T21:04:39.501Z,103023.68
2019-03-28T21:07:10.268Z,103031.23
2019-03-28T21:09:42.593Z,103029.44
2019-03-28T21:12:13.243Z,103024.50
2019-03-28T21:14:45.190Z,103032.95
2019-03-28T21:17:15.841Z,103029.91
2019-03-28T21:19:47.121Z,103027.80
2019-03-28T21:22:17.914Z,103028.78
2019-03-28T21:24:48.632Z,103031.05
2019-03-28T21:27:20.817Z,103030.21
2019-03-28T21:29:51.690Z,103030.25
2019-03-28T21:32:22.467Z,103028.83
2019-03-28T21:34:56.324Z,103028.05
2019-03-28T21:37:25.812Z,103032.78
2019-03-28T21:39:56.653Z,103029.16
2019-03-28T21:42:32.206Z,103031.45
2019-03-28T21:45:02.956Z,103036.79
2019-03-28T21:47:35.313Z,103042.91
2019-03-28T21:50:06.325Z,103036.34
2019-03-28T21:52:38.190Z,103033.64
2019-03-28T21:55:11.503Z,103029.26
2019-03-28T21:57:43.967Z,103032.81
2019-03-28T22:00:15.014Z,103038.20
2019-03-28T22:02:45.667Z,103035.55
2019-03-28T22:05:17.342Z,103036.02
2019-03-28T22:07:48.130Z,103038.67
2019-03-28T22:10:18.864Z,103032.02
2019-03-28T22:12:49.601Z,103038.66
2019-03-28T22:15:23.433Z,103039.53
2019-03-28T22:17:54.093Z,103032.80
2019-03-28T22:20:24.875Z,103039.05
2019-03-28T22:22:55.943Z,103040.84
2019-03-28T22:25:26.653Z,103039.08
2019-03-28T22:27:57.496Z,103037.34
2019-03-28T22:30:28.204Z,103041.73
2019-03-28T22:32:59.073Z,103040.76
2019-03-28T22:35:29.823Z,103045.66
2019-03-28T22:38:00.533Z,103044.33
2019-03-28T22:40:34.988Z,103035.88
2019-03-28T22:43:07.020Z,103043.34
2019-03-28T22:45:38.063Z,103038.89
2019-03-28T22:48:10.928Z,103037.53
2019-03-28T22:50:41.396Z,103037.59
2019-03-28T22:53:12.242Z,103038.88
2019-03-28T22:55:43.254Z,103032.27
2019-03-28T22:58:13.996Z,103033.64
2019-03-28T23:00:45.716Z,103031.91
2019-03-28T23:03:18.549Z,103030.59
2019-03-28T23:05:49.359Z,103035.05
2019-03-28T23:08:20.329Z,103031.94
2019-03-28T23:10:51.083Z,103031.94
2019-03-28T23:13:22.859Z,103034.14
2019-03-28T23:15:55.336Z,103033.27
2019-03-28T23:18:26.945Z,103041.20
2019-03-28T23:20:57.791Z,103034.10
2019-03-28T23:23:30.229Z,103037.67
2019-03-28T23:26:01.013Z,103025.67
2019-03-28T23:28:31.840Z,103024.81
2019-03-28T23:31:02.541Z,103023.94
2019-03-28T23:33:36.045Z,103024.35
2019-03-28T23:36:07.031Z,103029.23
2019-03-28T23:38:40.253Z,103023.92
2019-03-28T23:41:11.500Z,103028.73
2019-03-28T23:43:42.173Z,103020.33
2019-03-28T23:46:14.397Z,103019.46
2019-03-28T23:48:45.564Z,103019.01
2019-03-28T23:51:17.259Z,103016.34
2019-03-28T23:53:50.770Z,103018.02
2019-03-28T23:56:26.665Z,103021.61
2019-03-28T23:58:57.687Z,103016.33
